sensor_id;sensor_type;location;lat;lon;timestamp;pressure;altitude;pressure_sealevel;temperature;humidity
53908;BME280;40469;47.998;7.794;2023-04-07T00:02:28;98971.09;;;9.21;100.00
53908;BME280;40469;47.998;7.794;2023-04-07T00:04:53;98964.16;;;9.13;100.00
53908;BME280;40469;47.998;7.794;2023-04-07T00:07:18;98962.44;;;9.08;100.00
53908;BME280;40469;47.998;7.794;2023-04-07T00:09:44;98965.84;;;9.24;100.00
53908;BME280;40469;47.998;7.794;2023-04-07T00:12:09;98965.81;;;9.30;100.00
53908;BME280;40469;47.998;7.794;2023-04-07T00:14:34;98970.13;;;9.38;100.00
53908;BME280;40469;47.998;7.794;2023-04-07T00:17:00;98966.72;;;9.22;100.00
53908;BME280;40469;47.998;7.794;2023-04-07T00:19:25;98969.38;;;9.11;100.00
53908;BME280;40469;47.998;7.794;2023-04-07T00:21:51;98966.75;;;9.19;100.00
53908;BME280;40469;47.998;7.794;2023-04-07T00:24:17;98962.47;;;9.02;100.00
53908;BME280;40469;47.998;7.794;2023-04-07T00:26:42;98963.28;;;9.15;100.00
53908;BME280;40469;47.998;7.794;2023-04-07T00:29:08;98964.16;;;9.14;100.00
53908;BME280;40469;47.998;7.794;2023-04-07T00:31:33;98955.47;;;9.15;100.00
53908;BME280;40469;47.998;7.794;2023-04-07T00:33:58;98951.16;;;9.11;100.00
53908;BME280;40469;47.998;7.794;2023-04-07T00:36:24;98956.31;;;9.17;100.00
53908;BME280;40469;47.998;7.794;2023-04-07T00:38:51;98946.78;;;9.11;100.00
53908;BME280;40469;47.998;7.794;2023-04-07T00:41:16;98951.16;;;9.05;100.00
53908;BME280;40469;47.998;7.794;2023-04-07T00:43:41;98939.00;;;9.10;100.00
53908;BME280;40469;47.998;7.794;2023-04-07T00:46:07;98932.00;;;9.18;100.00
53908;BME280;40469;47.998;7.794;2023-04-07T00:48:32;98923.38;;;9.07;100.00
53908;BME280;40469;47.998;7.794;2023-04-07T00:50:58;98926.00;;;8.99;100.00
53908;BME280;40469;47.998;7.794;2023-04-07T00:53:23;98928.56;;;9.11;100.00
53908;BME280;40469;47.998;7.794;2023-04-07T00:55:52;98929.47;;;9.04;100.00
53908;BME280;40469;47.998;7.794;2023-04-07T00:58:17;98927.72;;;9.13;100.00
53908;BME280;40469;47.998;7.794;2023-04-07T01:00:58;98922.50;;;9.11;100.00
53908;BME280;40469;47.998;7.794;2023-04-07T01:03:34;98925.13;;;9.05;100.00
53908;BME280;40469;47.998;7.794;2023-04-07T01:06:01;98916.44;;;8.98;100.00
53908;BME280;40469;47.998;7.794;2023-04-07T01:08:53;98909.53;;;8.96;100.00
53908;BME280;40469;47.998;7.794;2023-04-07T01:13:51;98915.59;;;9.01;100.00
53908;BME280;40469;47.998;7.794;2023-04-07T01:16:30;98909.50;;;9.05;100.00
53908;BME280;40469;47.998;7.794;2023-04-07T01:19:04;98914.69;;;9.08;100.00
53908;BME280;40469;47.998;7.794;2023-04-07T01:21:34;98909.50;;;9.03;100.00
53908;BME280;40469;47.998;7.794;2023-04-07T01:24:17;98908.63;;;9.04;100.00
53908;BME280;40469;47.998;7.794;2023-04-07T01:26:45;98910.38;;;9.01;100.00
53908;BME280;40469;47.998;7.794;2023-04-07T01:29:40;98907.75;;;9.07;100.00
53908;BME280;40469;47.998;7.794;2023-04-07T01:32:11;98899.91;;;9.08;100.00
53908;BME280;40469;47.998;7.794;2023-04-07T01:34:39;98897.31;;;9.08;100.00
53908;BME280;40469;47.998;7.794;2023-04-07T01:37:06;98902.53;;;9.11;100.00
53908;BME280;40469;47.998;7.794;2023-04-07T01:39:32;98893.84;;;9.06;100.00
53908;BME280;40469;47.998;7.794;2023-04-07T01:41:58;98891.25;;;9.13;100.00
53908;BME280;40469;47.998;7.794;2023-04-07T01:44:27;98891.25;;;9.14;100.00
53908;BME280;40469;47.998;7.794;2023-04-07T01:46:54;98887.75;;;9.12;100.00
53908;BME280;40469;47.998;7.794;2023-04-07T01:49:21;98878.22;;;9.09;100.00
53908;BME280;40469;47.998;7.794;2023-04-07T01:51:48;98874.78;;;9.06;100.00
53908;BME280;40469;47.998;7.794;2023-04-07T01:54:15;98872.09;;;9.20;100.00
53908;BME280;40469;47.998;7.794;2023-04-07T01:56:40;98856.56;;;9.03;100.00
53908;BME280;40469;47.998;7.794;2023-04-07T01:59:06;98863.44;;;9.11;100.00
53908;BME280;40469;47.998;7.794;2023-04-07T02:01:31;98852.97;;;9.22;100.00
53908;BME280;40469;47.998;7.794;2023-04-07T02:04:05;98851.28;;;9.14;100.00
53908;BME280;40469;47.998;7.794;2023-04-07T02:06:41;98840.91;;;9.06;100.00
53908;BME280;40469;47.998;7.794;2023-04-07T02:09:10;98846.00;;;9.23;100.00
53908;BME280;40469;47.998;7.794;2023-04-07T02:11:38;98853.88;;;9.20;100.00
53908;BME280;40469;47.998;7.794;2023-04-07T02:14:06;98847.81;;;9.13;100.00
53908;BME280;40469;47.998;7.794;2023-04-07T02:16:33;98845.22;;;9.10;100.00
53908;BME280;40469;47.998;7.794;2023-04-07T02:18:59;98838.25;;;9.15;100.00
53908;BME280;40469;47.998;7.794;2023-04-07T02:21:27;98831.34;;;9.08;100.00
53908;BME280;40469;47.998;7.794;2023-04-07T02:23:54;98830.50;;;9.06;100.00
53908;BME280;40469;47.998;7.794;2023-04-07T02:26:20;98820.06;;;9.07;100.00
53908;BME280;40469;47.998;7.794;2023-04-07T02:28:45;98812.22;;;9.14;100.00
53908;BME280;40469;47.998;7.794;2023-04-07T02:31:10;98816.63;;;9.05;100.00
53908;BME280;40469;47.998;7.794;2023-04-07T02:33:37;98821.00;;;9.00;100.00
53908;BME280;40469;47.998;7.794;2023-04-07T02:36:03;98813.19;;;9.00;100.00
53908;BME280;40469;47.998;7.794;2023-04-07T02:38:28;98814.03;;;8.99;100.00
53908;BME280;40469;47.998;7.794;2023-04-07T02:40:54;98814.91;;;8.98;100.00
53908;BME280;40469;47.998;7.794;2023-04-07T02:43:20;98820.16;;;8.90;100.00
53908;BME280;40469;47.998;7.794;2023-04-07T02:45:45;98818.44;;;8.89;100.00
53908;BME280;40469;47.998;7.794;2023-04-07T02:48:10;98808.94;;;8.79;100.00
53908;BME280;40469;47.998;7.794;2023-04-07T02:50:36;98811.50;;;8.90;100.00
53908;BME280;40469;47.998;7.794;2023-04-07T02:53:01;98814.16;;;8.78;100.00
53908;BME280;40469;47.998;7.794;2023-04-07T02:55:27;98799.41;;;8.77;100.00
53908;BME280;40469;47.998;7.794;2023-04-07T02:57:52;98812.47;;;8.69;100.00
53908;BME280;40469;47.998;7.794;2023-04-07T03:00:17;98809.81;;;8.75;100.00
53908;BME280;40469;47.998;7.794;2023-04-07T03:02:43;98810.72;;;8.72;100.00
53908;BME280;40469;47.998;7.794;2023-04-07T03:05:08;98809.88;;;8.66;100.00
53908;BME280;40469;47.998;7.794;2023-04-07T03:07:34;98809.91;;;8.61;100.00
53908;BME280;40469;47.998;7.794;2023-04-07T03:09:59;98808.19;;;8.56;100.00
53908;BME280;40469;47.998;7.794;2023-04-07T03:12:25;98808.19;;;8.54;100.00
53908;BME280;40469;47.998;7.794;2023-04-07T03:14:50;98801.25;;;8.50;100.00
53908;BME280;40469;47.998;7.794;2023-04-07T03:17:15;98804.75;;;8.49;100.00
53908;BME280;40469;47.998;7.794;2023-04-07T03:19:41;98807.34;;;8.49;100.00
53908;BME280;40469;47.998;7.794;2023-04-07T03:22:06;98808.22;;;8.45;100.00
53908;BME280;40469;47.998;7.794;2023-04-07T03:24:31;98806.47;;;8.36;100.00
53908;BME280;40469;47.998;7.794;2023-04-07T03:26:57;98809.13;;;8.33;100.00
53908;BME280;40469;47.998;7.794;2023-04-07T03:29:22;98797.00;;;8.23;100.00
53908;BME280;40469;47.998;7.794;2023-04-07T03:31:47;98796.16;;;8.10;100.00
53908;BME280;40469;47.998;7.794;2023-04-07T03:34:13;98794.41;;;8.15;100.00
53908;BME280;40469;47.998;7.794;2023-04-07T03:36:38;98796.16;;;8.16;100.00
53908;BME280;40469;47.998;7.794;2023-04-07T03:39:04;98781.44;;;8.06;100.00
53908;BME280;40469;47.998;7.794;2023-04-07T03:41:29;98786.63;;;8.04;100.00
53908;BME280;40469;47.998;7.794;2023-04-07T03:43:55;98788.34;;;8.11;100.00
53908;BME280;40469;47.998;7.794;2023-04-07T03:46:21;98784.03;;;8.04;100.00
53908;BME280;40469;47.998;7.794;2023-04-07T03:48:46;98790.09;;;8.06;100.00
53908;BME280;40469;47.998;7.794;2023-04-07T03:51:12;98784.97;;;7.91;100.00
53908;BME280;40469;47.998;7.794;2023-04-07T03:53:37;98780.59;;;7.88;100.00
53908;BME280;40469;47.998;7.794;2023-04-07T03:56:03;98776.28;;;7.83;100.00
53908;BME280;40469;47.998;7.794;2023-04-07T03:58:28;98773.66;;;7.92;100.00
53908;BME280;40469;47.998;7.794;2023-04-07T04:00:54;98772.78;;;7.97;100.00
53908;BME280;40469;47.998;7.794;2023-04-07T04:03:19;98772.81;;;7.96;100.00
53908;BME280;40469;47.998;7.794;2023-04-07T04:05:45;98771.09;;;7.86;100.00
53908;BME280;40469;47.998;7.794;2023-04-07T04:08:10;98774.56;;;7.74;100.00
53908;BME280;40469;47.998;7.794;2023-04-07T04:10:35;98777.19;;;7.62;100.00
53908;BME280;40469;47.998;7.794;2023-04-07T04:13:01;98769.41;;;7.51;100.00
53908;BME280;40469;47.998;7.794;2023-04-07T04:15:30;98773.72;;;7.55;100.00
53908;BME280;40469;47.998;7.794;2023-04-07T04:17:56;98765.09;;;7.59;100.00
53908;BME280;40469;47.998;7.794;2023-04-07T04:20:21;98768.53;;;7.58;100.00
53908;BME280;40469;47.998;7.794;2023-04-07T04:22:46;98765.09;;;7.57;100.00
53908;BME280;40469;47.998;7.794;2023-04-07T04:25:12;98761.59;;;7.62;100.00
53908;BME280;40469;47.998;7.794;2023-04-07T04:27:37;98762.47;;;7.67;100.00
53908;BME280;40469;47.998;7.794;2023-04-07T04:30:03;98761.59;;;7.75;100.00
53908;BME280;40469;47.998;7.794;2023-04-07T04:32:28;98758.09;;;7.78;100.00
53908;BME280;40469;47.998;7.794;2023-04-07T04:34:54;98758.09;;;7.78;100.00
53908;BME280;40469;47.998;7.794;2023-04-07T04:37:20;98749.44;;;7.82;100.00
53908;BME280;40469;47.998;7.794;2023-04-07T04:39:45;98753.75;;;7.83;100.00
53908;BME280;40469;47.998;7.794;2023-04-07T04:42:10;98753.78;;;7.78;100.00
53908;BME280;40469;47.998;7.794;2023-04-07T04:44:36;98756.34;;;7.83;100.00
53908;BME280;40469;47.998;7.794;2023-04-07T04:47:01;98761.59;;;7.78;100.00
53908;BME280;40469;47.998;7.794;2023-04-07T04:49:27;98751.16;;;7.82;100.00
53908;BME280;40469;47.998;7.794;2023-04-07T04:51:52;98752.03;;;7.87;100.00
53908;BME280;40469;47.998;7.794;2023-04-07T04:54:18;98756.34;;;7.86;100.00
53908;BME280;40469;47.998;7.794;2023-04-07T04:56:43;98753.75;;;7.85;100.00
53908;BME280;40469;47.998;7.794;2023-04-07T04:59:09;98755.50;;;7.86;100.00
53908;BME280;40469;47.998;7.794;2023-04-07T05:01:34;98757.22;;;7.87;100.00
53908;BME280;40469;47.998;7.794;2023-04-07T05:04:00;98763.31;;;7.83;100.00
53908;BME280;40469;47.998;7.794;2023-04-07T05:06:25;98749.41;;;7.87;100.00
53908;BME280;40469;47.998;7.794;2023-04-07T05:08:51;98764.16;;;7.82;100.00
53908;BME280;40469;47.998;7.794;2023-04-07T05:11:17;98760.69;;;7.86;100.00
53908;BME280;40469;47.998;7.794;2023-04-07T05:13:42;98758.09;;;7.86;100.00
53908;BME280;40469;47.998;7.794;2023-04-07T05:16:07;98765.03;;;7.76;100.00
53908;BME280;40469;47.998;7.794;2023-04-07T05:18:33;98764.19;;;7.71;100.00
53908;BME280;40469;47.998;7.794;2023-04-07T05:20:58;98766.81;;;7.65;100.00
53908;BME280;40469;47.998;7.794;2023-04-07T05:23:23;98768.53;;;7.64;100.00
53908;BME280;40469;47.998;7.794;2023-04-07T05:25:49;98765.91;;;7.70;100.00
53908;BME280;40469;47.998;7.794;2023-04-07T05:28:15;98758.97;;;7.71;100.00
53908;BME280;40469;47.998;7.794;2023-04-07T05:30:40;98775.44;;;7.73;100.00
53908;BME280;40469;47.998;7.794;2023-04-07T05:33:06;98772.88;;;7.71;100.00
53908;BME280;40469;47.998;7.794;2023-04-07T05:35:31;98770.25;;;7.71;100.00
53908;BME280;40469;47.998;7.794;2023-04-07T05:37:57;98774.56;;;7.69;100.00
53908;BME280;40469;47.998;7.794;2023-04-07T05:40:22;98774.56;;;7.74;100.00
53908;BME280;40469;47.998;7.794;2023-04-07T05:42:48;98774.56;;;7.75;100.00
53908;BME280;40469;47.998;7.794;2023-04-07T05:45:13;98773.72;;;7.67;100.00
53908;BME280;40469;47.998;7.794;2023-04-07T05:47:39;98780.66;;;7.65;100.00
53908;BME280;40469;47.998;7.794;2023-04-07T05:50:04;98773.72;;;7.59;100.00
53908;BME280;40469;47.998;7.794;2023-04-07T05:52:30;98785.84;;;7.71;100.00
53908;BME280;40469;47.998;7.794;2023-04-07T05:54:55;98775.44;;;7.76;100.00
53908;BME280;40469;47.998;7.794;2023-04-07T05:57:21;98784.13;;;7.76;100.00
53908;BME280;40469;47.998;7.794;2023-04-07T05:59:46;98777.16;;;7.69;100.00
53908;BME280;40469;47.998;7.794;2023-04-07T06:02:12;98779.78;;;7.62;100.00
53908;BME280;40469;47.998;7.794;2023-04-07T06:04:37;98783.25;;;7.54;100.00
53908;BME280;40469;47.998;7.794;2023-04-07T06:07:03;98791.91;;;7.59;100.00
53908;BME280;40469;47.998;7.794;2023-04-07T06:09:29;98789.31;;;7.53;100.00
53908;BME280;40469;47.998;7.794;2023-04-07T06:11:55;98796.25;;;7.45;100.00
53908;BME280;40469;47.998;7.794;2023-04-07T06:14:21;98792.78;;;7.49;100.00
53908;BME280;40469;47.998;7.794;2023-04-07T06:16:46;98795.38;;;7.40;100.00
53908;BME280;40469;47.998;7.794;2023-04-07T06:19:11;98795.38;;;7.48;100.00
53908;BME280;40469;47.998;7.794;2023-04-07T06:21:37;98797.13;;;7.52;100.00
53908;BME280;40469;47.998;7.794;2023-04-07T06:24:04;98797.09;;;7.41;100.00
53908;BME280;40469;47.998;7.794;2023-04-07T06:26:29;98798.84;;;7.37;100.00
53908;BME280;40469;47.998;7.794;2023-04-07T06:28:56;98801.44;;;7.33;100.00
53908;BME280;40469;47.998;7.794;2023-04-07T06:31:22;98797.97;;;7.40;100.00
53908;BME280;40469;47.998;7.794;2023-04-07T06:33:47;98804.91;;;7.35;100.00
53908;BME280;40469;47.998;7.794;2023-04-07T06:36:13;98805.78;;;7.37;100.00
53908;BME280;40469;47.998;7.794;2023-04-07T06:38:38;98802.31;;;7.44;100.00
53908;BME280;40469;47.998;7.794;2023-04-07T06:41:03;98806.66;;;7.56;100.00
53908;BME280;40469;47.998;7.794;2023-04-07T06:43:29;98815.28;;;7.67;100.00
53908;BME280;40469;47.998;7.794;2023-04-07T06:45:55;98810.09;;;7.76;100.00
53908;BME280;40469;47.998;7.794;2023-04-07T06:48:21;98817.88;;;7.86;100.00
53908;BME280;40469;47.998;7.794;2023-04-07T06:50:50;98812.69;;;7.89;100.00
53908;BME280;40469;47.998;7.794;2023-04-07T06:53:16;98816.13;;;7.95;100.00
53908;BME280;40469;47.998;7.794;2023-04-07T06:55:41;98823.06;;;7.92;100.00
53908;BME280;40469;47.998;7.794;2023-04-07T06:58:06;98823.94;;;7.89;100.00
53908;BME280;40469;47.998;7.794;2023-04-07T07:00:32;98823.09;;;7.84;100.00
53908;BME280;40469;47.998;7.794;2023-04-07T07:02:57;98817.00;;;7.88;100.00
53908;BME280;40469;47.998;7.794;2023-04-07T07:05:23;98819.59;;;8.01;100.00
53908;BME280;40469;47.998;7.794;2023-04-07T07:07:49;98815.25;;;8.09;100.00
53908;BME280;40469;47.998;7.794;2023-04-07T07:10:14;98832.56;;;8.18;100.00
53908;BME280;40469;47.998;7.794;2023-04-07T07:12:40;98823.03;;;8.21;100.00
53908;BME280;40469;47.998;7.794;2023-04-07T07:15:06;98836.88;;;8.19;100.00
53908;BME280;40469;47.998;7.794;2023-04-07T07:17:31;98838.59;;;8.27;100.00
53908;BME280;40469;47.998;7.794;2023-04-07T07:19:57;98829.06;;;8.26;100.00
53908;BME280;40469;47.998;7.794;2023-04-07T07:22:22;98835.09;;;8.36;100.00
53908;BME280;40469;47.998;7.794;2023-04-07T07:24:47;98842.94;;;8.28;100.00
53908;BME280;40469;47.998;7.794;2023-04-07T07:27:13;98844.66;;;8.46;100.00
53908;BME280;40469;47.998;7.794;2023-04-07T07:29:38;98839.44;;;8.37;100.00
53908;BME280;40469;47.998;7.794;2023-04-07T07:32:03;98841.16;;;8.55;100.00
53908;BME280;40469;47.998;7.794;2023-04-07T07:34:30;98835.94;;;8.61;100.00
53908;BME280;40469;47.998;7.794;2023-04-07T07:36:55;98827.25;;;8.62;100.00
53908;BME280;40469;47.998;7.794;2023-04-07T07:39:21;98843.72;;;8.64;100.00
53908;BME280;40469;47.998;7.794;2023-04-07T07:41:46;98845.41;;;8.75;100.00
53908;BME280;40469;47.998;7.794;2023-04-07T07:44:11;98845.44;;;8.67;100.00
53908;BME280;40469;47.998;7.794;2023-04-07T07:46:37;98842.78;;;8.79;100.00
53908;BME280;40469;47.998;7.794;2023-04-07T07:49:02;98850.66;;;8.64;100.00
53908;BME280;40469;47.998;7.794;2023-04-07T07:51:29;98851.47;;;8.77;100.00
53908;BME280;40469;47.998;7.794;2023-04-07T07:53:54;98850.66;;;8.67;100.00
53908;BME280;40469;47.998;7.794;2023-04-07T07:56:20;98850.66;;;8.64;100.00
53908;BME280;40469;47.998;7.794;2023-04-07T07:58:45;98851.53;;;8.63;100.00
53908;BME280;40469;47.998;7.794;2023-04-07T08:01:11;98858.50;;;8.56;100.00
53908;BME280;40469;47.998;7.794;2023-04-07T08:03:36;98862.84;;;8.49;100.00
53908;BME280;40469;47.998;7.794;2023-04-07T08:06:02;98869.81;;;8.35;100.00
53908;BME280;40469;47.998;7.794;2023-04-07T08:08:27;98870.66;;;8.31;100.00
53908;BME280;40469;47.998;7.794;2023-04-07T08:10:53;98875.91;;;8.28;100.00
53908;BME280;40469;47.998;7.794;2023-04-07T08:13:21;98872.41;;;8.33;100.00
53908;BME280;40469;47.998;7.794;2023-04-07T08:15:47;98881.06;;;8.32;100.00
53908;BME280;40469;47.998;7.794;2023-04-07T08:18:12;98887.16;;;8.25;100.00
53908;BME280;40469;47.998;7.794;2023-04-07T08:20:37;98888.03;;;8.16;100.00
53908;BME280;40469;47.998;7.794;2023-04-07T08:23:03;98888.91;;;8.12;100.00
53908;BME280;40469;47.998;7.794;2023-04-07T08:25:29;98888.91;;;8.11;100.00
53908;BME280;40469;47.998;7.794;2023-04-07T08:27:54;98896.72;;;7.98;100.00
53908;BME280;40469;47.998;7.794;2023-04-07T08:30:20;98902.78;;;7.91;100.00
53908;BME280;40469;47.998;7.794;2023-04-07T08:32:46;98909.72;;;7.78;100.00
53908;BME280;40469;47.998;7.794;2023-04-07T08:35:11;98907.97;;;7.76;100.00
53908;BME280;40469;47.998;7.794;2023-04-07T08:37:38;98907.09;;;7.72;100.00
53908;BME280;40469;47.998;7.794;2023-04-07T08:40:04;98909.72;;;7.63;100.00
53908;BME280;40469;47.998;7.794;2023-04-07T08:42:31;98921.81;;;7.53;100.00
53908;BME280;40469;47.998;7.794;2023-04-07T08:45:02;98926.16;;;7.54;100.00
53908;BME280;40469;47.998;7.794;2023-04-07T08:47:32;98927.84;;;7.31;100.00
53908;BME280;40469;47.998;7.794;2023-04-07T08:50:03;98928.66;;;7.20;100.00
53908;BME280;40469;47.998;7.794;2023-04-07T08:52:45;98934.72;;;7.22;100.00
53908;BME280;40469;47.998;7.794;2023-04-07T08:55:12;98929.53;;;7.29;100.00
53908;BME280;40469;47.998;7.794;2023-04-07T08:57:37;98927.84;;;7.29;100.00
53908;BME280;40469;47.998;7.794;2023-04-07T09:00:04;98939.91;;;7.21;100.00
53908;BME280;40469;47.998;7.794;2023-04-07T09:02:34;98947.69;;;7.15;100.00
53908;BME280;40469;47.998;7.794;2023-04-07T09:05:02;98951.13;;;7.05;100.00
53908;BME280;40469;47.998;7.794;2023-04-07T09:07:30;98949.34;;;6.97;100.00
53908;BME280;40469;47.998;7.794;2023-04-07T09:09:57;98947.63;;;6.99;100.00
53908;BME280;40469;47.998;7.794;2023-04-07T09:12:22;98947.59;;;6.96;100.00
53908;BME280;40469;47.998;7.794;2023-04-07T09:14:48;98952.81;;;6.99;100.00
53908;BME280;40469;47.998;7.794;2023-04-07T09:17:13;98952.84;;;7.01;100.00
53908;BME280;40469;47.998;7.794;2023-04-07T09:19:38;98952.81;;;6.96;100.00
53908;BME280;40469;47.998;7.794;2023-04-07T09:22:04;98964.88;;;6.87;100.00
53908;BME280;40469;47.998;7.794;2023-04-07T09:24:29;98961.41;;;6.88;100.00
53908;BME280;40469;47.998;7.794;2023-04-07T09:27:11;98957.06;;;6.83;100.00
53908;BME280;40469;47.998;7.794;2023-04-07T09:29:37;98958.00;;;6.98;100.00
53908;BME280;40469;47.998;7.794;2023-04-07T09:32:03;98964.00;;;6.88;100.00
53908;BME280;40469;47.998;7.794;2023-04-07T09:34:29;98963.94;;;6.75;100.00
53908;BME280;40469;47.998;7.794;2023-04-07T09:36:56;98969.91;;;6.60;100.00
53908;BME280;40469;47.998;7.794;2023-04-07T09:39:24;98963.75;;;6.48;100.00
53908;BME280;40469;47.998;7.794;2023-04-07T09:41:50;98974.09;;;6.40;100.00
53908;BME280;40469;47.998;7.794;2023-04-07T09:44:17;98967.16;;;6.36;100.00
53908;BME280;40469;47.998;7.794;2023-04-07T09:49:18;98979.28;;;6.40;100.00
53908;BME280;40469;47.998;7.794;2023-04-07T09:52:01;98976.72;;;6.43;100.00
53908;BME280;40469;47.998;7.794;2023-04-07T09:54:38;98974.63;;;5.97;100.00
53908;BME280;40469;47.998;7.794;2023-04-07T09:57:08;98977.31;;;6.10;100.00
53908;BME280;40469;47.998;7.794;2023-04-07T09:59:35;98981.53;;;6.00;100.00
53908;BME280;40469;47.998;7.794;2023-04-07T10:02:01;98974.44;;;5.82;100.00
53908;BME280;40469;47.998;7.794;2023-04-07T10:04:27;98981.28;;;5.75;100.00
53908;BME280;40469;47.998;7.794;2023-04-07T10:06:54;98981.13;;;5.57;100.00
53908;BME280;40469;47.998;7.794;2023-04-07T10:09:23;98968.19;;;5.60;100.00
53908;BME280;40469;47.998;7.794;2023-04-07T10:11:51;98981.16;;;5.60;100.00
53908;BME280;40469;47.998;7.794;2023-04-07T10:14:18;98976.03;;;5.67;100.00
53908;BME280;40469;47.998;7.794;2023-04-07T10:16:46;98979.38;;;5.57;100.00
53908;BME280;40469;47.998;7.794;2023-04-07T10:19:12;98981.19;;;5.66;100.00
53908;BME280;40469;47.998;7.794;2023-04-07T10:21:40;98982.88;;;5.61;100.00
53908;BME280;40469;47.998;7.794;2023-04-07T10:26:40;98986.25;;;5.54;100.00
53908;BME280;40469;47.998;7.794;2023-04-07T10:29:09;98976.81;;;5.59;100.00
53908;BME280;40469;47.998;7.794;2023-04-07T10:31:37;98985.69;;;5.81;100.00
53908;BME280;40469;47.998;7.794;2023-04-07T10:34:03;98985.78;;;5.92;100.00
53908;BME280;40469;47.998;7.794;2023-04-07T10:36:30;98991.91;;;5.97;100.00
53908;BME280;40469;47.998;7.794;2023-04-07T10:41:37;98985.13;;;6.16;100.00
53908;BME280;40469;47.998;7.794;2023-04-07T10:44:07;98999.81;;;6.14;100.00
53908;BME280;40469;47.998;7.794;2023-04-07T10:49:12;99005.25;;;6.48;100.00
53908;BME280;40469;47.998;7.794;2023-04-07T10:51:38;99002.47;;;6.20;100.00
53908;BME280;40469;47.998;7.794;2023-04-07T10:54:21;98998.25;;;6.33;100.00
53908;BME280;40469;47.998;7.794;2023-04-07T10:59:32;99006.09;;;6.42;100.00
53908;BME280;40469;47.998;7.794;2023-04-07T11:04:45;99009.66;;;6.56;100.00
53908;BME280;40469;47.998;7.794;2023-04-07T11:07:13;99007.84;;;6.44;100.00
53908;BME280;40469;47.998;7.794;2023-04-07T11:09:42;99004.28;;;6.29;100.00
53908;BME280;40469;47.998;7.794;2023-04-07T11:12:07;99007.78;;;6.34;100.00
53908;BME280;40469;47.998;7.794;2023-04-07T11:14:33;99009.56;;;6.41;100.00
53908;BME280;40469;47.998;7.794;2023-04-07T11:17:02;99013.88;;;6.42;100.00
53908;BME280;40469;47.998;7.794;2023-04-07T11:19:28;99006.38;;;6.83;100.00
53908;BME280;40469;47.998;7.794;2023-04-07T11:22:15;99003.72;;;6.73;100.00
53908;BME280;40469;47.998;7.794;2023-04-07T11:24:41;99010.47;;;6.51;100.00
53908;BME280;40469;47.998;7.794;2023-04-07T11:27:14;99007.91;;;6.52;100.00
53908;BME280;40469;47.998;7.794;2023-04-07T11:29:40;99013.09;;;6.54;100.00
53908;BME280;40469;47.998;7.794;2023-04-07T11:32:05;99017.53;;;6.70;100.00
53908;BME280;40469;47.998;7.794;2023-04-07T11:34:32;99019.22;;;6.65;100.00
53908;BME280;40469;47.998;7.794;2023-04-07T11:37:17;99019.28;;;6.71;100.00
53908;BME280;40469;47.998;7.794;2023-04-07T11:39:43;99011.72;;;7.11;100.00
53908;BME280;40469;47.998;7.794;2023-04-07T11:42:10;99010.94;;;7.31;100.00
53908;BME280;40469;47.998;7.794;2023-04-07T11:44:44;99020.50;;;7.44;100.00
53908;BME280;40469;47.998;7.794;2023-04-07T11:47:09;99022.28;;;7.56;100.00
53908;BME280;40469;47.998;7.794;2023-04-07T11:49:43;99023.00;;;7.15;100.00
53908;BME280;40469;47.998;7.794;2023-04-07T11:52:10;99027.28;;;7.10;100.00
53908;BME280;40469;47.998;7.794;2023-04-07T11:54:42;99023.69;;;6.81;100.00
53908;BME280;40469;47.998;7.794;2023-04-07T11:57:08;99018.56;;;6.95;100.00
53908;BME280;40469;47.998;7.794;2023-04-07T11:59:37;99016.84;;;7.02;100.00
53908;BME280;40469;47.998;7.794;2023-04-07T12:02:02;99022.06;;;7.03;100.00
53908;BME280;40469;47.998;7.794;2023-04-07T12:04:28;99027.22;;;7.00;100.00
53908;BME280;40469;47.998;7.794;2023-04-07T12:07:06;99022.97;;;7.10;100.00
53908;BME280;40469;47.998;7.794;2023-04-07T12:09:33;99026.41;;;7.09;100.00
53908;BME280;40469;47.998;7.794;2023-04-07T12:12:03;99023.84;;;7.14;100.00
53908;BME280;40469;47.998;7.794;2023-04-07T12:14:32;99028.09;;;6.98;100.00
53908;BME280;40469;47.998;7.794;2023-04-07T12:16:58;99030.66;;;6.90;100.00
53908;BME280;40469;47.998;7.794;2023-04-07T12:19:26;99025.50;;;7.04;100.00
53908;BME280;40469;47.998;7.794;2023-04-07T12:21:52;99025.66;;;7.27;100.00
53908;BME280;40469;47.998;7.794;2023-04-07T12:24:18;99018.75;;;7.35;100.00
53908;BME280;40469;47.998;7.794;2023-04-07T12:26:43;99024.75;;;7.22;100.00
53908;BME280;40469;47.998;7.794;2023-04-07T12:29:09;99028.28;;;7.44;100.00
53908;BME280;40469;47.998;7.794;2023-04-07T12:31:34;99027.50;;;7.59;100.00
53908;BME280;40469;47.998;7.794;2023-04-07T12:34:00;99029.25;;;7.69;100.00
53908;BME280;40469;47.998;7.794;2023-04-07T12:36:26;99034.47;;;7.74;100.00
53908;BME280;40469;47.998;7.794;2023-04-07T12:38:52;99030.03;;;7.45;100.00
53908;BME280;40469;47.998;7.794;2023-04-07T12:41:18;99024.88;;;7.60;100.00
53908;BME280;40469;47.998;7.794;2023-04-07T12:43:43;99023.19;;;7.70;100.00
53908;BME280;40469;47.998;7.794;2023-04-07T12:46:09;99028.34;;;7.58;100.00
53908;BME280;40469;47.998;7.794;2023-04-07T12:48:34;99023.16;;;7.66;100.00
53908;BME280;40469;47.998;7.794;2023-04-07T12:51:00;99025.75;;;7.58;100.00
53908;BME280;40469;47.998;7.794;2023-04-07T12:53:25;99036.13;;;7.49;100.00
53908;BME280;40469;47.998;7.794;2023-04-07T12:55:51;99032.66;;;7.51;100.00
53908;BME280;40469;47.998;7.794;2023-04-07T12:58:17;99028.34;;;7.52;100.00
53908;BME280;40469;47.998;7.794;2023-04-07T13:00:43;99033.56;;;7.61;100.00
53908;BME280;40469;47.998;7.794;2023-04-07T13:03:11;99028.38;;;7.67;100.00
53908;BME280;40469;47.998;7.794;2023-04-07T13:05:36;99021.44;;;7.63;100.00
53908;BME280;40469;47.998;7.794;2023-04-07T13:08:02;99042.25;;;7.74;100.00
53908;BME280;40469;47.998;7.794;2023-04-07T13:10:28;99031.84;;;7.65;100.00
53908;BME280;40469;47.998;7.794;2023-04-07T13:12:53;99034.44;;;7.72;100.00
53908;BME280;40469;47.998;7.794;2023-04-07T13:15:18;99034.41;;;7.58;100.00
53908;BME280;40469;47.998;7.794;2023-04-07T13:17:45;99031.81;;;7.60;100.00